createdAt,value
2023-09-04T00:00:14.783Z,4.05
2023-09-04T00:03:19.748Z,4.65
2023-09-04T00:06:22.168Z,4.53
2023-09-04T00:09:24.605Z,4.85
2023-09-04T00:12:26.915Z,4.87
2023-09-04T00:15:29.189Z,4.80
2023-09-04T00:18:32.353Z,4.35
2023-09-04T00:21:34.617Z,4.20
2023-09-04T00:24:37.204Z,4.43
2023-09-04T00:27:39.563Z,4.40
2023-09-04T00:30:43.127Z,5.25
2023-09-04T00:33:48.368Z,5.22
2023-09-04T00:36:50.615Z,4.97
2023-09-04T00:39:52.828Z,4.65
2023-09-04T00:42:55.225Z,4.67
2023-09-04T00:45:58.024Z,5.07
2023-09-04T00:49:00.274Z,4.53
2023-09-04T00:52:02.685Z,4.95
2023-09-04T00:55:06.551Z,4.78
2023-09-04T00:58:08.825Z,4.93
2023-09-04T01:01:11.255Z,4.40
2023-09-04T01:04:13.534Z,4.88
2023-09-04T01:07:15.860Z,5.22
2023-09-04T01:10:18.175Z,5.22
2023-09-04T01:13:25.615Z,5.03
2023-09-04T01:16:28.011Z,4.78
2023-09-04T01:19:30.605Z,4.43
2023-09-04T01:22:32.807Z,5.00
2023-09-04T01:25:44.611Z,4.95
2023-09-04T01:29:12.026Z,5.10
2023-09-04T01:32:21.491Z,5.05
2023-09-04T01:35:25.184Z,4.47
2023-09-04T01:38:28.857Z,5.13
2023-09-04T01:41:31.119Z,5.50
2023-09-04T01:44:34.022Z,4.90
2023-09-04T01:47:36.274Z,5.05
2023-09-04T01:50:38.545Z,5.47
2023-09-04T01:53:40.773Z,5.25
2023-09-04T01:56:43.045Z,5.85
2023-09-04T01:59:45.271Z,5.13
2023-09-04T02:02:47.526Z,5.70
2023-09-04T02:05:49.871Z,5.47
2023-09-04T02:08:52.383Z,5.22
2023-09-04T02:11:54.650Z,5.20
2023-09-04T02:14:57.200Z,6.00
2023-09-04T02:18:03.695Z,6.07
2023-09-04T02:21:06.816Z,6.13
2023-09-04T02:24:09.248Z,6.28
2023-09-04T02:27:11.602Z,6.32
2023-09-04T02:30:14.693Z,5.90
2023-09-04T02:33:17.088Z,6.70
2023-09-04T02:36:19.350Z,6.20
2023-09-04T02:39:21.679Z,6.57
2023-09-04T02:42:24.651Z,7.38
2023-09-04T02:45:28.897Z,7.20
2023-09-04T02:48:31.390Z,7.15
2023-09-04T02:51:33.923Z,7.35
2023-09-04T02:54:36.211Z,6.72
2023-09-04T02:57:41.577Z,6.65
2023-09-04T03:00:44.800Z,6.37
2023-09-04T03:03:47.471Z,6.75
2023-09-04T03:06:49.677Z,6.30
2023-09-04T03:09:56.614Z,6.45
2023-09-04T03:12:59.083Z,6.28
2023-09-04T03:16:01.390Z,6.50
2023-09-04T03:19:03.760Z,6.13
2023-09-04T03:22:06.113Z,5.53
2023-09-04T03:25:08.714Z,6.10
2023-09-04T03:28:11.697Z,6.43
2023-09-04T03:31:15.964Z,6.77
2023-09-04T03:34:20.764Z,6.32
2023-09-04T03:37:23.959Z,6.43
2023-09-04T03:40:28.253Z,6.07
2023-09-04T03:43:30.832Z,6.30
2023-09-04T03:46:33.246Z,6.87
2023-09-04T03:49:35.509Z,7.18
2023-09-04T03:52:39.331Z,7.22
2023-09-04T03:55:41.593Z,6.75
2023-09-04T03:58:43.891Z,6.78
2023-09-04T04:01:48.019Z,6.80
2023-09-04T04:04:54.479Z,6.70
2023-09-04T04:07:57.687Z,6.43
2023-09-04T04:11:00.568Z,6.78
2023-09-04T04:14:03.661Z,6.60
2023-09-04T04:17:06.745Z,6.37
2023-09-04T04:20:13.860Z,6.68
2023-09-04T04:23:17.034Z,6.63
2023-09-04T04:26:20.020Z,6.57
2023-09-04T04:29:23.112Z,6.57
2023-09-04T04:32:26.566Z,7.37
2023-09-04T04:35:30.022Z,7.03
2023-09-04T04:38:33.115Z,6.78
2023-09-04T04:41:36.820Z,7.07
2023-09-04T04:44:41.974Z,6.88
2023-09-04T04:47:45.537Z,7.07
2023-09-04T04:50:49.888Z,7.22
2023-09-04T04:53:53.200Z,7.28
2023-09-04T04:56:56.389Z,7.60
2023-09-04T04:59:59.378Z,8.18
2023-09-04T05:03:02.600Z,7.80
2023-09-04T05:06:10.582Z,7.68
2023-09-04T05:09:13.975Z,7.88
2023-09-04T05:12:17.180Z,7.47
2023-09-04T05:15:20.271Z,7.72
2023-09-04T05:18:24.711Z,7.33
2023-09-04T05:21:27.996Z,7.00
2023-09-04T05:24:30.885Z,7.22
2023-09-04T05:27:33.872Z,7.18
2023-09-04T05:30:36.767Z,7.45
2023-09-04T05:33:40.163Z,7.33
2023-09-04T05:36:43.009Z,7.20
2023-09-04T05:39:45.250Z,7.43
2023-09-04T05:42:47.694Z,8.23
2023-09-04T05:45:50.622Z,7.32
2023-09-04T05:48:52.850Z,5.57
2023-09-04T05:51:55.674Z,3.95
2023-09-04T05:54:57.921Z,4.30
2023-09-04T05:58:00.139Z,3.60
2023-09-04T06:01:02.470Z,3.90
2023-09-04T06:04:05.108Z,3.90
2023-09-04T06:07:08.249Z,3.70
2023-09-04T06:10:11.080Z,3.85
2023-09-04T06:13:13.441Z,3.50
2023-09-04T06:16:19.179Z,3.58
2023-09-04T06:19:21.447Z,2.97
2023-09-04T06:22:23.774Z,3.08
2023-09-04T06:25:25.993Z,3.03
2023-09-04T06:28:28.306Z,2.95
2023-09-04T06:31:30.659Z,2.97
2023-09-04T06:34:32.887Z,2.80
2023-09-04T06:37:35.897Z,2.70
2023-09-04T06:40:41.243Z,3.10
2023-09-04T06:43:45.129Z,3.00
2023-09-04T06:46:47.467Z,2.80
2023-09-04T06:49:49.665Z,2.83
2023-09-04T06:52:52.952Z,2.75
2023-09-04T06:55:55.752Z,2.83
2023-09-04T06:58:57.948Z,2.60
2023-09-04T07:02:01.690Z,2.92
2023-09-04T07:05:06.863Z,2.67
2023-09-04T07:08:09.142Z,2.80
2023-09-04T07:11:11.499Z,2.70
2023-09-04T07:14:13.787Z,2.70
2023-09-04T07:17:16.064Z,2.75
2023-09-04T07:20:18.600Z,3.10
2023-09-04T07:23:22.843Z,3.10
2023-09-04T07:26:25.429Z,3.08
2023-09-04T07:29:27.714Z,3.10
2023-09-04T07:32:30.121Z,2.75
2023-09-04T07:35:32.449Z,3.20
2023-09-04T07:38:34.702Z,3.03
2023-09-04T07:41:36.997Z,3.28
2023-09-04T07:44:39.243Z,3.10
2023-09-04T07:47:41.626Z,3.15
2023-09-04T07:50:43.923Z,3.20
2023-09-04T07:53:46.186Z,3.20
2023-09-04T07:56:48.439Z,2.70
2023-09-04T07:59:50.636Z,2.78
2023-09-04T08:02:52.902Z,2.78
2023-09-04T08:05:55.112Z,2.90
2023-09-04T08:08:57.394Z,2.63
2023-09-04T08:11:59.797Z,2.60
2023-09-04T08:15:02.057Z,2.50
2023-09-04T08:18:04.855Z,2.67
2023-09-04T08:21:07.180Z,2.60
2023-09-04T08:24:09.509Z,2.60
2023-09-04T08:27:11.713Z,2.47
2023-09-04T08:30:14.196Z,2.40
2023-09-04T08:33:16.504Z,2.42
2023-09-04T08:36:18.765Z,2.20
2023-09-04T08:39:21.014Z,2.35
2023-09-04T08:42:23.607Z,2.20
2023-09-04T08:45:26.161Z,2.60
2023-09-04T08:48:30.934Z,2.45
2023-09-04T08:51:33.750Z,2.23
2023-09-04T08:54:36.158Z,2.30
2023-09-04T08:57:39.004Z,2.33
2023-09-04T09:00:41.575Z,2.60
2023-09-04T09:03:44.315Z,2.60
2023-09-04T09:06:48.742Z,2.40
2023-09-04T09:09:51.928Z,2.13
2023-09-04T09:12:54.144Z,2.45
2023-09-04T09:15:56.436Z,2.20
2023-09-04T09:18:58.662Z,2.58
2023-09-04T09:22:22.542Z,2.13
2023-09-04T09:25:25.103Z,2.22
2023-09-04T09:28:27.855Z,2.38
2023-09-04T09:31:31.148Z,2.30
2023-09-04T09:34:34.905Z,2.50
2023-09-04T09:37:37.264Z,2.20
2023-09-04T09:40:39.603Z,2.28
2023-09-04T09:43:42.536Z,2.20
2023-09-04T09:46:44.817Z,2.17
2023-09-04T09:49:47.495Z,2.50
2023-09-04T09:53:03.850Z,2.20
2023-09-04T09:56:06.230Z,1.73
2023-09-04T09:59:09.320Z,2.10
2023-09-04T10:02:18.496Z,1.77
2023-09-04T10:05:23.573Z,1.90
2023-09-04T10:08:26.725Z,1.70
2023-09-04T10:11:30.810Z,2.22
2023-09-04T10:14:38.815Z,1.90
2023-09-04T10:18:03.915Z,2.05
2023-09-04T10:21:07.565Z,1.98
2023-09-04T10:24:13.661Z,1.80
2023-09-04T10:27:18.490Z,1.90
2023-09-04T10:30:23.969Z,1.88
2023-09-04T10:33:26.541Z,1.65
2023-09-04T10:36:32.597Z,1.83
2023-09-04T10:39:34.932Z,1.70
2023-09-04T10:42:38.709Z,1.73
2023-09-04T10:45:41.068Z,1.63
2023-09-04T10:48:53.543Z,1.60
2023-09-04T10:51:55.825Z,1.55
2023-09-04T10:55:12.654Z,1.70
2023-09-04T10:58:15.182Z,2.03
2023-09-04T11:01:32.747Z,1.75
2023-09-04T11:04:34.990Z,1.90
2023-09-04T11:07:38.219Z,1.77
2023-09-04T11:10:41.588Z,1.60
2023-09-04T11:13:45.364Z,1.60
2023-09-04T11:16:51.461Z,1.67
2023-09-04T11:19:54.176Z,1.60
2023-09-04T11:22:57.521Z,1.45
2023-09-04T11:25:59.784Z,1.70
2023-09-04T11:29:04.005Z,1.65
2023-09-04T11:32:08.835Z,1.70
2023-09-04T11:35:13.092Z,1.50
2023-09-04T11:38:29.804Z,1.90
2023-09-04T11:41:32.464Z,1.83
2023-09-04T11:44:34.702Z,1.92
2023-09-04T11:47:37.119Z,2.00
2023-09-04T11:50:39.438Z,1.83
2023-09-04T11:53:41.733Z,1.92
2023-09-04T11:56:43.931Z,1.50
2023-09-04T11:59:46.150Z,1.77
2023-09-04T12:02:48.391Z,1.70
2023-09-04T12:05:52.565Z,1.52
2023-09-04T12:08:55.239Z,1.83
2023-09-04T12:11:57.864Z,1.60
2023-09-04T12:15:00.223Z,1.45
2023-09-04T12:18:04.628Z,1.50
2023-09-04T12:21:10.322Z,1.75
2023-09-04T12:24:14.354Z,1.58
2023-09-04T12:27:16.584Z,2.00
2023-09-04T12:30:18.956Z,1.30
2023-09-04T12:33:21.729Z,1.60
2023-09-04T12:36:24.019Z,1.60
2023-09-04T12:39:26.407Z,1.77
2023-09-04T12:42:28.670Z,1.50
2023-09-04T12:45:31.704Z,1.85
2023-09-04T12:48:35.169Z,1.50
2023-09-04T12:51:37.433Z,2.15
2023-09-04T12:54:39.973Z,2.00
2023-09-04T12:57:42.755Z,1.50
2023-09-04T13:00:45.341Z,1.65
2023-09-04T13:03:47.804Z,1.50
2023-09-04T13:06:50.096Z,1.40
2023-09-04T13:09:52.322Z,1.33
2023-09-04T13:12:54.613Z,1.40
2023-09-04T13:15:56.843Z,1.70
2023-09-04T13:18:59.066Z,1.35
2023-09-04T13:22:01.287Z,1.40
2023-09-04T13:25:04.044Z,1.70
2023-09-04T13:28:06.587Z,1.60
2023-09-04T13:31:09.056Z,1.55
2023-09-04T13:34:11.395Z,1.30
2023-09-04T13:37:13.684Z,1.58
2023-09-04T13:40:16.078Z,1.70
2023-09-04T13:43:18.622Z,1.60
2023-09-04T13:46:20.947Z,1.38
2023-09-04T13:49:23.684Z,1.50
2023-09-04T13:52:26.150Z,1.60
2023-09-04T13:55:28.410Z,1.40
2023-09-04T13:58:30.725Z,1.60
2023-09-04T14:01:33.016Z,1.40
2023-09-04T14:04:35.342Z,1.40
2023-09-04T14:07:38.376Z,1.27
2023-09-04T14:10:40.611Z,1.50
2023-09-04T14:13:42.919Z,1.33
2023-09-04T14:16:45.179Z,1.40
2023-09-04T14:19:47.448Z,1.50
2023-09-04T14:22:50.992Z,1.52
2023-09-04T14:25:53.290Z,1.42
2023-09-04T14:28:55.591Z,1.63
2023-09-04T14:31:57.993Z,1.60
2023-09-04T14:35:00.222Z,1.45
2023-09-04T14:38:02.626Z,1.40
2023-09-04T14:41:18.340Z,1.73
2023-09-04T14:44:20.592Z,1.50
2023-09-04T14:47:23.017Z,1.60
2023-09-04T14:50:25.833Z,1.60
2023-09-04T14:53:28.393Z,1.80
2023-09-04T14:56:31.177Z,1.60
2023-09-04T14:59:33.530Z,1.47
2023-09-04T15:02:35.907Z,1.52
2023-09-04T15:05:38.227Z,1.70
2023-09-04T15:08:41.008Z,1.58
2023-09-04T15:11:43.279Z,1.52
2023-09-04T15:14:45.611Z,1.87
2023-09-04T15:17:47.903Z,1.70
2023-09-04T15:20:50.453Z,1.70
2023-09-04T15:23:52.842Z,1.60
2023-09-04T15:26:55.366Z,1.73
2023-09-04T15:29:58.337Z,1.53
2023-09-04T15:33:01.206Z,1.88
2023-09-04T15:36:03.592Z,1.92
2023-09-04T15:39:06.284Z,1.70
2023-09-04T15:42:13.246Z,1.73
2023-09-04T15:45:15.851Z,1.67
2023-09-04T15:48:20.739Z,1.70
2023-09-04T15:51:23.484Z,1.73
2023-09-04T15:54:30.702Z,1.80
2023-09-04T15:57:33.145Z,1.70
2023-09-04T16:00:36.130Z,1.60
2023-09-04T16:03:39.420Z,1.65
2023-09-04T16:06:45.276Z,1.55
2023-09-04T16:09:47.837Z,1.83
2023-09-04T16:12:50.947Z,1.70
2023-09-04T16:15:55.962Z,1.90
2023-09-04T16:19:02.055Z,1.60
2023-09-04T16:22:05.447Z,1.60
2023-09-04T16:25:08.696Z,1.70
2023-09-04T16:28:12.738Z,1.70
2023-09-04T16:31:15.088Z,1.83
2023-09-04T16:34:20.448Z,1.58
2023-09-04T16:37:24.654Z,1.80
2023-09-04T16:40:27.305Z,2.10
2023-09-04T16:43:30.283Z,1.60
2023-09-04T16:46:32.707Z,1.77
2023-09-04T16:49:35.250Z,2.10
2023-09-04T16:52:37.767Z,1.85
2023-09-04T16:55:40.762Z,1.70
2023-09-04T16:58:46.092Z,1.75
2023-09-04T17:01:49.422Z,1.73
2023-09-04T17:04:53.268Z,1.88
2023-09-04T17:07:55.949Z,1.73
2023-09-04T17:11:00.443Z,1.70
2023-09-04T17:14:03.543Z,1.83
2023-09-04T17:17:06.522Z,1.80
2023-09-04T17:20:10.334Z,1.80
2023-09-04T17:23:14.283Z,1.90
2023-09-04T17:26:17.185Z,2.10
2023-09-04T17:29:21.154Z,2.05
2023-09-04T17:32:23.811Z,2.00
2023-09-04T17:35:27.427Z,1.75
2023-09-04T17:38:40.993Z,2.00
2023-09-04T17:41:44.834Z,2.20
2023-09-04T17:44:47.430Z,2.00
2023-09-04T17:47:50.757Z,2.00
2023-09-04T17:50:53.843Z,2.17
2023-09-04T17:53:56.735Z,2.05
2023-09-04T17:57:00.849Z,2.42
2023-09-04T18:00:05.206Z,2.22
2023-09-04T18:03:15.728Z,2.67
2023-09-04T18:06:19.749Z,2.75
2023-09-04T18:09:23.240Z,2.38
2023-09-04T18:12:25.913Z,2.83
2023-09-04T18:15:30.867Z,2.50
2023-09-04T18:18:39.830Z,2.87
2023-09-04T18:21:43.038Z,3.03
2023-09-04T18:24:46.008Z,2.85
2023-09-04T18:27:51.352Z,2.80
2023-09-04T18:30:55.589Z,2.80
2023-09-04T18:33:59.092Z,3.10
2023-09-04T18:37:02.225Z,2.60
2023-09-04T18:40:06.124Z,2.50
2023-09-04T18:43:13.863Z,2.58
2023-09-04T18:46:20.816Z,2.90
2023-09-04T18:49:26.149Z,2.60
2023-09-04T18:52:29.519Z,2.22
2023-09-04T18:55:32.938Z,2.42
2023-09-04T18:58:39.218Z,2.42
2023-09-04T19:01:43.482Z,2.67
2023-09-04T19:04:46.849Z,2.40
2023-09-04T19:07:50.904Z,2.53
2023-09-04T19:10:55.276Z,2.40
2023-09-04T19:13:59.956Z,2.33
2023-09-04T19:17:03.334Z,2.33
2023-09-04T19:20:09.731Z,2.20
2023-09-04T19:23:12.775Z,2.13
2023-09-04T19:26:16.880Z,2.00
2023-09-04T19:29:20.140Z,2.40
2023-09-04T19:32:26.171Z,2.70
2023-09-04T19:35:29.721Z,2.30
2023-09-04T19:38:33.080Z,2.47
2023-09-04T19:41:37.754Z,2.65
2023-09-04T19:44:42.228Z,2.45
2023-09-04T19:47:45.501Z,2.88
2023-09-04T19:50:48.915Z,2.83
2023-09-04T19:53:52.959Z,2.90
2023-09-04T19:56:56.221Z,2.75
2023-09-04T20:00:02.441Z,2.90
2023-09-04T20:03:15.948Z,2.70
2023-09-04T20:06:20.458Z,2.40
2023-09-04T20:09:23.929Z,2.67
2023-09-04T20:12:28.211Z,2.85
2023-09-04T20:15:33.401Z,2.83
2023-09-04T20:18:36.030Z,2.40
2023-09-04T20:21:38.831Z,2.90
2023-09-04T20:24:41.465Z,2.72
2023-09-04T20:27:44.220Z,2.40
2023-09-04T20:30:51.162Z,2.72
2023-09-04T20:33:54.749Z,2.38
2023-09-04T20:37:02.380Z,2.67
2023-09-04T20:40:05.540Z,2.50
2023-09-04T20:43:08.424Z,2.78
2023-09-04T20:46:10.742Z,3.05
2023-09-04T20:49:13.775Z,2.70
2023-09-04T20:52:16.978Z,2.80
2023-09-04T20:55:19.849Z,2.92
2023-09-04T20:58:22.556Z,3.05
2023-09-04T21:01:24.802Z,3.00
2023-09-04T21:04:27.526Z,2.80
2023-09-04T21:07:29.802Z,2.80
2023-09-04T21:10:33.124Z,2.70
2023-09-04T21:13:54.079Z,2.85
2023-09-04T21:17:14.841Z,3.00
2023-09-04T21:20:35.648Z,2.80
2023-09-04T21:23:56.687Z,2.60
2023-09-04T21:27:17.611Z,2.40
2023-09-04T21:30:38.509Z,2.15
2023-09-04T21:33:59.053Z,2.40
2023-09-04T21:37:19.701Z,2.20
2023-09-04T21:40:40.389Z,2.50
2023-09-04T21:44:01.434Z,2.40
2023-09-04T21:47:22.123Z,2.25
2023-09-04T21:50:43.572Z,2.00
2023-09-04T21:54:05.300Z,2.50
2023-09-04T21:57:26.721Z,2.30
2023-09-04T22:00:47.942Z,2.13
2023-09-04T22:04:09.157Z,2.28
2023-09-04T22:07:30.376Z,2.20
2023-09-04T22:10:51.704Z,2.10
2023-09-04T22:14:13.039Z,1.97
2023-09-04T22:17:33.766Z,2.08
2023-09-04T22:20:54.943Z,2.10
2023-09-04T22:24:16.660Z,2.33
2023-09-04T22:27:37.837Z,2.58
2023-09-04T22:30:59.072Z,2.23
2023-09-04T22:34:20.361Z,2.63
2023-09-04T22:37:41.101Z,2.40
2023-09-04T22:41:01.766Z,2.15
2023-09-04T22:44:22.717Z,2.42
2023-09-04T22:47:43.676Z,2.03
2023-09-04T22:51:06.874Z,2.08
2023-09-04T22:54:27.740Z,2.20
2023-09-04T22:57:48.610Z,2.17
2023-09-04T23:01:10.022Z,2.20
2023-09-04T23:04:30.903Z,2.50
2023-09-04T23:07:51.439Z,2.75
2023-09-04T23:11:13.991Z,2.40
2023-09-04T23:14:35.077Z,2.35
2023-09-04T23:17:56.021Z,2.30
2023-09-04T23:21:04.845Z,2.40
2023-09-04T23:24:17.858Z,2.38
2023-09-04T23:27:20.356Z,2.53
2023-09-04T23:30:23.771Z,2.70
2023-09-04T23:33:38.723Z,2.50
2023-09-04T23:36:54.402Z,2.63
2023-09-04T23:40:15.068Z,2.70
2023-09-04T23:43:35.739Z,2.67
2023-09-04T23:46:37.976Z,2.67
2023-09-04T23:49:40.539Z,2.60
2023-09-04T23:52:46.583Z,2.70
2023-09-04T23:55:49.019Z,3.00
2023-09-04T23:58:51.287Z,3.00
